createdAt,value
2022-10-15T00:00:29.437Z,13.30
2022-10-15T00:01:31.652Z,14.00
2022-10-15T00:02:35.000Z,14.18
2022-10-15T00:03:38.516Z,12.20
2022-10-15T00:04:41.296Z,13.40
2022-10-15T00:05:43.317Z,12.20
2022-10-15T00:06:46.455Z,13.50
2022-10-15T00:07:48.685Z,12.18
2022-10-15T00:08:50.877Z,13.90
2022-10-15T00:09:53.542Z,14.30
2022-10-15T00:12:27.246Z,10.70
2022-10-15T00:13:31.073Z,12.09
2022-10-15T00:14:34.644Z,13.40
2022-10-15T00:15:36.804Z,13.40
2022-10-15T00:16:39.125Z,8.30
2022-10-15T00:17:42.667Z,11.90
2022-10-15T00:18:44.840Z,13.70
2022-10-15T00:19:47.869Z,12.55
2022-10-15T00:20:50.052Z,10.70
2022-10-15T00:21:52.579Z,12.70
2022-10-15T00:22:55.799Z,13.55
2022-10-15T00:23:58.694Z,12.10
2022-10-15T00:25:00.783Z,12.30
2022-10-15T00:27:20.759Z,13.30
2022-10-15T00:28:24.152Z,12.09
2022-10-15T00:29:27.262Z,13.10
2022-10-15T00:30:30.444Z,11.50
2022-10-15T00:31:32.645Z,11.40
2022-10-15T00:32:34.661Z,14.10
2022-10-15T00:33:40.004Z,12.70
2022-10-15T00:37:51.464Z,13.90
2022-10-15T00:40:58.548Z,9.50
2022-10-15T00:43:07.295Z,12.60
2022-10-15T00:44:25.365Z,13.00
2022-10-15T00:45:27.776Z,11.90
2022-10-15T00:46:32.950Z,12.82
2022-10-15T00:49:52.467Z,10.10
2022-10-15T00:50:55.066Z,8.70
2022-10-15T00:51:59.233Z,13.80
2022-10-15T00:54:16.674Z,13.10
2022-10-15T00:55:36.513Z,11.70
2022-10-15T00:56:40.222Z,11.00
2022-10-15T00:57:42.753Z,8.50
2022-10-15T00:58:45.012Z,12.82
2022-10-15T00:59:50.942Z,11.45
2022-10-15T01:00:55.150Z,11.90
2022-10-15T01:01:59.631Z,11.90
2022-10-15T01:03:02.115Z,12.20
2022-10-15T01:04:05.301Z,11.60
2022-10-15T01:05:08.994Z,12.00
2022-10-15T01:06:11.987Z,10.80
2022-10-15T01:08:18.751Z,12.20
2022-10-15T01:09:20.896Z,12.00
2022-10-15T01:10:23.330Z,9.10
2022-10-15T01:11:29.684Z,11.10
2022-10-15T01:12:47.323Z,11.60
2022-10-15T01:15:36.387Z,11.90
2022-10-15T01:16:50.608Z,11.70
2022-10-15T01:18:11.609Z,14.00
2022-10-15T01:19:32.244Z,11.60
2022-10-15T01:20:56.667Z,9.30
2022-10-15T01:22:04.410Z,12.10
2022-10-15T01:23:19.313Z,12.90
2022-10-15T01:24:25.616Z,11.30
2022-10-15T01:25:40.558Z,10.20
2022-10-15T01:27:05.421Z,12.90
2022-10-15T01:28:26.149Z,12.00
2022-10-15T01:29:48.733Z,12.40
2022-10-15T01:30:55.093Z,9.20
2022-10-15T01:32:19.307Z,12.80
2022-10-15T01:33:28.497Z,11.90
2022-10-15T01:34:35.127Z,10.20
2022-10-15T01:35:48.819Z,13.50
2022-10-15T01:37:09.553Z,13.70
2022-10-15T01:38:18.302Z,12.20
2022-10-15T01:40:45.864Z,11.90
2022-10-15T01:41:51.510Z,11.60
2022-10-15T01:44:22.237Z,11.00
2022-10-15T01:45:57.838Z,13.00
2022-10-15T01:48:27.874Z,11.30
2022-10-15T01:49:33.943Z,12.50
2022-10-15T01:51:57.420Z,11.00
2022-10-15T01:53:00.270Z,12.60
2022-10-15T01:54:04.578Z,14.10
2022-10-15T01:55:10.245Z,12.80
2022-10-15T01:56:17.073Z,13.40
2022-10-15T01:57:19.531Z,13.00
2022-10-15T01:58:21.943Z,11.30
2022-10-15T01:59:27.148Z,6.90
2022-10-15T02:00:29.824Z,14.40
2022-10-15T02:01:33.922Z,13.00
2022-10-15T02:02:39.516Z,12.30
2022-10-15T02:03:48.372Z,13.10
2022-10-15T02:04:50.543Z,14.00
2022-10-15T02:06:06.104Z,12.60
2022-10-15T02:07:10.936Z,13.40
2022-10-15T02:09:45.082Z,14.90
2022-10-15T02:10:52.928Z,12.40
2022-10-15T02:12:17.301Z,11.00
2022-10-15T02:13:35.298Z,11.80
2022-10-15T02:16:11.794Z,11.60
2022-10-15T02:17:15.421Z,13.20
2022-10-15T02:20:14.135Z,10.60
2022-10-15T02:21:23.725Z,13.10
2022-10-15T02:24:05.459Z,11.20
2022-10-15T02:25:11.822Z,13.40
2022-10-15T02:26:13.963Z,11.70
2022-10-15T02:27:16.093Z,12.40
2022-10-15T02:28:18.291Z,9.90
2022-10-15T02:29:22.446Z,11.20
2022-10-15T02:30:25.252Z,13.80
2022-10-15T02:31:29.182Z,11.20
2022-10-15T02:32:31.324Z,12.40
2022-10-15T02:33:34.025Z,10.10
2022-10-15T02:34:36.010Z,13.60
2022-10-15T02:35:38.348Z,14.10
2022-10-15T02:36:42.552Z,11.91
2022-10-15T02:37:46.963Z,12.00
2022-10-15T02:38:50.959Z,10.90
2022-10-15T02:39:52.997Z,12.00
2022-10-15T02:40:55.205Z,11.90
2022-10-15T02:41:57.344Z,11.90
2022-10-15T02:43:00.300Z,11.73
2022-10-15T02:44:03.724Z,12.36
2022-10-15T02:45:06.801Z,12.30
2022-10-15T02:46:09.807Z,10.90
2022-10-15T02:47:12.268Z,11.64
2022-10-15T02:48:14.959Z,10.90
2022-10-15T02:49:16.939Z,10.50
2022-10-15T02:50:19.853Z,11.00
2022-10-15T02:51:22.242Z,10.91
2022-10-15T02:52:24.667Z,11.70
2022-10-15T02:53:27.406Z,10.70
2022-10-15T02:54:29.600Z,12.70
2022-10-15T02:55:31.779Z,11.30
2022-10-15T02:56:34.320Z,11.10
2022-10-15T02:57:36.789Z,9.90
2022-10-15T02:58:40.992Z,11.80
2022-10-15T02:59:43.414Z,11.10
2022-10-15T03:00:45.767Z,11.30
2022-10-15T03:01:48.205Z,11.60
2022-10-15T03:02:50.710Z,9.90
2022-10-15T03:03:53.733Z,12.30
2022-10-15T03:04:55.953Z,13.10
2022-10-15T03:05:58.620Z,9.90
2022-10-15T03:07:00.879Z,9.30
2022-10-15T03:08:03.596Z,13.10
2022-10-15T03:09:05.948Z,9.40
2022-10-15T03:10:08.748Z,11.60
2022-10-15T03:11:11.072Z,11.60
2022-10-15T03:12:13.193Z,11.40
2022-10-15T03:13:15.328Z,12.10
2022-10-15T03:14:19.541Z,9.80
2022-10-15T03:15:22.205Z,13.20
2022-10-15T03:16:24.799Z,10.70
2022-10-15T03:17:27.983Z,12.30
2022-10-15T03:18:30.540Z,10.90
2022-10-15T03:19:32.561Z,12.40
2022-10-15T03:20:36.195Z,13.60
2022-10-15T03:21:38.355Z,15.20
2022-10-15T03:22:42.649Z,12.50
2022-10-15T03:23:45.588Z,10.50
2022-10-15T03:24:50.323Z,11.60
2022-10-15T03:25:54.438Z,11.70
2022-10-15T03:26:57.191Z,12.36
2022-10-15T03:27:59.309Z,9.00
2022-10-15T03:29:03.378Z,13.50
2022-10-15T03:30:09.124Z,12.00
2022-10-15T03:31:12.002Z,12.90
2022-10-15T03:32:14.551Z,12.64
2022-10-15T03:33:16.673Z,10.20
2022-10-15T03:34:18.859Z,10.20
2022-10-15T03:35:21.582Z,6.70
2022-10-15T03:36:23.879Z,12.50
2022-10-15T03:37:26.362Z,10.20
2022-10-15T03:38:29.902Z,11.80
2022-10-15T03:39:32.789Z,12.30
2022-10-15T03:40:37.268Z,12.00
2022-10-15T03:41:59.887Z,12.80
2022-10-15T03:43:04.342Z,10.10
2022-10-15T03:44:09.519Z,11.50
2022-10-15T03:45:14.053Z,10.30
2022-10-15T03:46:16.742Z,12.60
2022-10-15T03:47:20.269Z,13.20
2022-10-15T03:48:24.941Z,16.10
2022-10-15T03:49:27.199Z,13.60
2022-10-15T03:50:29.515Z,7.70
2022-10-15T03:51:33.434Z,10.20
2022-10-15T03:52:37.523Z,14.90
2022-10-15T03:53:39.606Z,9.40
2022-10-15T03:54:41.829Z,13.00
2022-10-15T03:55:45.211Z,13.30
2022-10-15T03:56:47.661Z,10.36
2022-10-15T03:58:00.655Z,13.50
2022-10-15T03:59:03.913Z,10.80
2022-10-15T04:00:07.609Z,13.60
2022-10-15T04:01:18.361Z,11.20
2022-10-15T04:02:21.696Z,13.10
2022-10-15T04:03:24.267Z,13.64
2022-10-15T04:04:27.463Z,13.50
2022-10-15T04:05:30.376Z,10.60
2022-10-15T04:06:34.743Z,11.20
2022-10-15T04:07:39.042Z,12.10
2022-10-15T04:08:44.389Z,11.30
2022-10-15T04:09:54.405Z,6.80
2022-10-15T04:10:59.401Z,9.60
2022-10-15T04:12:01.793Z,11.20
2022-10-15T04:13:04.011Z,12.50
2022-10-15T04:14:07.863Z,12.60
2022-10-15T04:15:10.544Z,12.91
2022-10-15T04:16:15.073Z,11.40
2022-10-15T04:17:18.995Z,13.20
2022-10-15T04:18:21.447Z,12.00
2022-10-15T04:19:25.530Z,12.80
2022-10-15T04:20:32.654Z,9.90
2022-10-15T04:21:37.656Z,12.30
2022-10-15T04:22:40.210Z,12.80
2022-10-15T04:23:42.812Z,12.40
2022-10-15T04:24:58.848Z,13.10
2022-10-15T04:26:04.620Z,12.40
2022-10-15T04:27:08.122Z,10.91
2022-10-15T04:28:12.065Z,12.60
2022-10-15T04:29:14.809Z,12.70
2022-10-15T04:30:17.258Z,12.80
2022-10-15T04:31:21.610Z,11.10
2022-10-15T04:32:24.760Z,11.73
2022-10-15T04:33:27.440Z,13.91
2022-10-15T04:34:31.465Z,10.20
2022-10-15T04:35:33.665Z,9.30
2022-10-15T04:36:43.837Z,11.80
2022-10-15T04:37:50.859Z,12.30
2022-10-15T04:38:52.961Z,13.80
2022-10-15T04:39:59.634Z,13.40
2022-10-15T04:41:05.897Z,11.10
2022-10-15T04:42:11.467Z,11.80
2022-10-15T04:43:13.568Z,12.90
2022-10-15T04:44:16.193Z,13.50
2022-10-15T04:45:20.669Z,11.90
2022-10-15T04:46:24.178Z,12.50
2022-10-15T04:47:27.401Z,11.80
2022-10-15T04:48:33.417Z,12.20
2022-10-15T04:49:35.779Z,11.60
2022-10-15T04:50:39.786Z,12.60
2022-10-15T04:51:43.764Z,13.80
2022-10-15T04:52:51.131Z,13.90
2022-10-15T04:53:54.299Z,14.20
2022-10-15T04:54:57.009Z,13.18
2022-10-15T04:56:01.044Z,13.40
2022-10-15T04:57:04.212Z,14.10
2022-10-15T04:58:06.542Z,14.30
2022-10-15T04:59:08.901Z,13.30
2022-10-15T05:00:13.958Z,11.00
2022-10-15T05:01:35.857Z,14.20
2022-10-15T05:02:42.930Z,14.50
2022-10-15T05:03:56.445Z,16.20
2022-10-15T05:04:58.578Z,16.70
2022-10-15T05:06:07.123Z,14.30
2022-10-15T05:07:09.495Z,15.80
2022-10-15T05:08:12.991Z,15.20
2022-10-15T05:09:37.040Z,19.10
2022-10-15T05:10:39.835Z,16.40
2022-10-15T05:11:42.390Z,20.40
2022-10-15T05:12:47.217Z,14.20
2022-10-15T05:13:50.786Z,17.60
2022-10-15T05:14:55.175Z,16.70
2022-10-15T05:16:18.554Z,16.10
2022-10-15T05:17:21.212Z,17.60
2022-10-15T05:18:23.872Z,17.82
2022-10-15T05:19:27.971Z,17.90
2022-10-15T05:20:30.188Z,18.00
2022-10-15T05:21:33.614Z,18.30
2022-10-15T05:22:38.650Z,19.30
2022-10-15T05:23:41.963Z,20.50
2022-10-15T05:24:45.972Z,19.90
2022-10-15T05:25:53.147Z,19.60
2022-10-15T05:26:56.384Z,17.40
2022-10-15T05:28:11.961Z,19.80
2022-10-15T05:29:14.828Z,18.80
2022-10-15T05:30:17.485Z,20.20
2022-10-15T05:31:22.688Z,23.40
2022-10-15T05:32:26.667Z,20.00
2022-10-15T05:33:29.321Z,22.50
2022-10-15T05:34:32.116Z,18.80
2022-10-15T05:35:38.698Z,18.90
2022-10-15T05:36:40.938Z,20.80
2022-10-15T05:37:43.550Z,18.50
2022-10-15T05:39:01.472Z,19.40
2022-10-15T05:40:06.789Z,20.50
2022-10-15T05:41:09.060Z,15.60
2022-10-15T05:42:11.310Z,23.60
2022-10-15T05:43:15.426Z,23.20
2022-10-15T05:44:17.498Z,19.10
2022-10-15T05:45:20.106Z,21.60
2022-10-15T05:46:22.308Z,20.00
2022-10-15T05:47:24.801Z,23.50
2022-10-15T05:48:29.226Z,22.30
2022-10-15T05:49:32.413Z,16.50
2022-10-15T05:50:42.737Z,23.50
2022-10-15T05:51:46.727Z,20.80
2022-10-15T05:52:50.730Z,23.40
2022-10-15T05:54:06.753Z,25.10
2022-10-15T05:55:10.628Z,23.80
2022-10-15T05:56:13.636Z,17.30
2022-10-15T05:57:16.202Z,24.00
2022-10-15T05:58:18.207Z,22.30
2022-10-15T05:59:20.179Z,22.70
2022-10-15T06:00:22.306Z,23.10
2022-10-15T06:01:27.152Z,22.80
2022-10-15T06:02:30.243Z,24.60
2022-10-15T06:03:33.117Z,21.40
2022-10-15T06:04:35.949Z,20.00
2022-10-15T06:05:39.849Z,23.80
2022-10-15T06:06:42.954Z,24.00
2022-10-15T06:07:45.646Z,23.10
2022-10-15T06:08:48.808Z,22.20
2022-10-15T06:09:51.010Z,22.90
2022-10-15T06:10:55.379Z,23.00
2022-10-15T06:11:57.913Z,24.90
2022-10-15T06:13:01.426Z,23.00
2022-10-15T06:14:05.233Z,22.10
2022-10-15T06:15:09.225Z,21.30
2022-10-15T06:16:11.985Z,21.60
2022-10-15T06:17:13.967Z,21.00
2022-10-15T06:18:17.427Z,21.50
2022-10-15T06:19:21.640Z,21.00
2022-10-15T06:20:24.325Z,23.60
2022-10-15T06:21:26.423Z,21.00
2022-10-15T06:22:31.346Z,17.40
2022-10-15T06:23:35.083Z,19.10
2022-10-15T06:24:37.130Z,21.70
2022-10-15T06:25:41.178Z,20.10
2022-10-15T06:26:43.557Z,21.90
2022-10-15T06:27:45.623Z,21.50
2022-10-15T06:28:48.714Z,18.50
2022-10-15T06:29:51.116Z,19.80
2022-10-15T06:30:53.674Z,16.00
2022-10-15T06:31:56.865Z,19.20
2022-10-15T06:32:59.475Z,21.80
2022-10-15T06:34:01.770Z,21.18
2022-10-15T06:35:05.994Z,12.18
2022-10-15T06:36:09.972Z,25.70
2022-10-15T06:37:14.376Z,21.40
2022-10-15T06:38:17.341Z,18.90
2022-10-15T06:39:20.580Z,19.30
2022-10-15T06:40:22.838Z,21.50
2022-10-15T06:41:24.893Z,20.80
2022-10-15T06:42:26.976Z,19.40
2022-10-15T06:43:34.817Z,19.90
2022-10-15T06:44:35.982Z,19.30
2022-10-15T06:45:39.632Z,20.70
2022-10-15T06:46:43.953Z,20.40
2022-10-15T06:47:46.386Z,21.60
2022-10-15T06:48:48.557Z,21.90
2022-10-15T06:49:50.630Z,21.80
2022-10-15T06:50:52.836Z,19.20
2022-10-15T06:51:56.683Z,15.70
2022-10-15T06:54:01.518Z,20.80
2022-10-15T06:55:04.439Z,18.80
2022-10-15T06:56:07.671Z,20.70
2022-10-15T06:57:11.809Z,14.40
2022-10-15T06:58:15.044Z,19.00
2022-10-15T06:59:17.093Z,18.20
2022-10-15T07:00:19.206Z,19.90
2022-10-15T07:01:22.446Z,19.90
2022-10-15T07:02:26.234Z,22.00
2022-10-15T07:03:28.688Z,18.60
2022-10-15T07:04:31.671Z,19.33
2022-10-15T07:05:34.027Z,19.50
2022-10-15T07:06:36.104Z,15.90
2022-10-15T07:07:39.387Z,18.40
2022-10-15T07:08:41.533Z,16.80
2022-10-15T07:09:43.558Z,18.20
2022-10-15T07:10:47.172Z,17.90
2022-10-15T07:11:49.225Z,17.60
2022-10-15T07:12:51.766Z,20.00
2022-10-15T07:13:53.900Z,19.90
2022-10-15T07:14:55.983Z,16.60
2022-10-15T07:16:00.631Z,20.30
2022-10-15T07:17:05.595Z,18.50
2022-10-15T07:18:08.947Z,19.30
2022-10-15T07:19:11.675Z,16.50
2022-10-15T07:20:17.808Z,21.60
2022-10-15T07:21:19.774Z,19.70
2022-10-15T07:22:22.201Z,19.30
2022-10-15T07:23:27.805Z,18.00
2022-10-15T07:24:30.656Z,22.10
2022-10-15T07:25:32.649Z,18.20
2022-10-15T07:26:35.484Z,16.90
2022-10-15T07:27:38.586Z,18.10
2022-10-15T07:28:41.524Z,16.50
2022-10-15T07:29:44.298Z,18.90
2022-10-15T07:30:48.456Z,17.40
2022-10-15T07:31:50.532Z,17.90
2022-10-15T07:32:57.590Z,18.00
2022-10-15T07:33:59.753Z,18.20
2022-10-15T07:35:02.122Z,19.50
2022-10-15T07:36:07.006Z,16.00
2022-10-15T07:37:09.689Z,17.30
2022-10-15T07:38:12.510Z,18.20
2022-10-15T07:39:14.918Z,18.11
2022-10-15T07:40:18.165Z,17.20
2022-10-15T07:41:23.025Z,17.70
2022-10-15T07:42:26.921Z,17.20
2022-10-15T07:43:29.083Z,15.60
2022-10-15T07:44:32.131Z,17.60
2022-10-15T07:45:34.804Z,18.00
2022-10-15T07:46:37.004Z,18.60
2022-10-15T07:47:40.992Z,13.70
2022-10-15T07:48:43.162Z,17.40
2022-10-15T07:49:45.274Z,16.90
2022-10-15T07:50:57.405Z,17.10
2022-10-15T07:51:59.545Z,16.40
2022-10-15T07:53:03.687Z,16.30
2022-10-15T07:54:05.862Z,17.50
2022-10-15T07:55:08.939Z,14.40
2022-10-15T07:56:14.138Z,19.10
2022-10-15T07:57:17.612Z,16.90
2022-10-15T07:58:20.773Z,15.80
2022-10-15T07:59:23.827Z,15.70
2022-10-15T08:00:26.520Z,18.10
2022-10-15T08:01:28.685Z,18.80
2022-10-15T08:02:30.886Z,17.50
2022-10-15T08:03:32.907Z,20.90
2022-10-15T08:04:35.001Z,17.40
2022-10-15T08:05:37.340Z,17.00
2022-10-15T08:06:39.537Z,14.60
2022-10-15T08:07:42.005Z,15.50
2022-10-15T08:08:46.788Z,15.90
2022-10-15T08:09:48.867Z,16.60
2022-10-15T08:10:51.142Z,16.90
2022-10-15T08:11:53.153Z,15.90
2022-10-15T08:12:55.446Z,17.10
2022-10-15T08:13:58.063Z,14.90
2022-10-15T08:15:00.050Z,16.60
2022-10-15T08:16:02.259Z,17.10
2022-10-15T08:17:04.638Z,16.30
2022-10-15T08:18:07.783Z,16.30
2022-10-15T08:19:09.826Z,15.10
2022-10-15T08:20:12.718Z,16.20
2022-10-15T08:21:15.265Z,16.30
2022-10-15T08:22:18.606Z,14.90
2022-10-15T08:23:21.757Z,17.00
2022-10-15T08:24:25.471Z,13.60
2022-10-15T08:25:28.089Z,18.10
2022-10-15T08:26:30.825Z,17.10
2022-10-15T08:27:32.908Z,14.20
2022-10-15T08:28:36.665Z,15.40
2022-10-15T08:29:38.875Z,16.36
2022-10-15T08:30:41.546Z,16.40
2022-10-15T08:31:46.834Z,17.30
2022-10-15T08:32:49.243Z,13.20
2022-10-15T08:33:52.348Z,14.60
2022-10-15T08:34:54.427Z,13.80
2022-10-15T08:35:56.523Z,12.70
2022-10-15T08:36:58.609Z,13.50
2022-10-15T08:38:01.859Z,11.40
2022-10-15T08:39:04.554Z,11.90
2022-10-15T08:40:09.200Z,12.80
2022-10-15T08:41:27.324Z,11.60
2022-10-15T08:42:38.459Z,11.60
2022-10-15T08:43:40.824Z,12.30
2022-10-15T08:44:46.817Z,12.20
2022-10-15T08:45:51.357Z,11.80
2022-10-15T08:47:02.342Z,10.80
2022-10-15T08:49:31.877Z,10.50
2022-10-15T08:50:42.687Z,12.00
2022-10-15T08:51:47.821Z,10.70
2022-10-15T08:52:49.879Z,10.90
2022-10-15T08:55:07.219Z,10.50
2022-10-15T08:56:16.910Z,11.80
2022-10-15T08:57:28.446Z,11.60
2022-10-15T08:58:47.917Z,10.50
2022-10-15T09:00:06.014Z,12.60
2022-10-15T09:01:18.187Z,10.40
2022-10-15T09:02:36.758Z,10.10
2022-10-15T09:04:00.381Z,10.40
2022-10-15T09:05:40.049Z,10.00
2022-10-15T09:06:42.220Z,11.50
2022-10-15T09:07:52.136Z,10.90
2022-10-15T09:09:13.539Z,7.60
2022-10-15T09:10:19.856Z,10.70
2022-10-15T09:11:53.027Z,10.60
2022-10-15T09:13:03.615Z,10.40
2022-10-15T09:14:09.656Z,10.90
2022-10-15T09:16:29.749Z,10.90
2022-10-15T09:17:32.112Z,11.20
2022-10-15T09:18:37.828Z,9.90
2022-10-15T09:19:40.914Z,12.30
2022-10-15T09:20:43.580Z,10.90
2022-10-15T09:21:46.989Z,11.70
2022-10-15T09:23:54.025Z,11.10
2022-10-15T09:24:56.547Z,10.50
2022-10-15T09:26:05.988Z,9.40
2022-10-15T09:27:11.224Z,11.30
2022-10-15T09:28:17.754Z,13.80
2022-10-15T09:29:32.955Z,11.00
2022-10-15T09:30:38.880Z,9.10
2022-10-15T09:31:46.140Z,10.80
2022-10-15T09:32:54.601Z,12.70
2022-10-15T09:34:03.305Z,3.90
2022-10-15T09:35:12.541Z,13.00
2022-10-15T09:37:52.571Z,10.70
2022-10-15T09:39:01.154Z,9.70
2022-10-15T09:41:40.476Z,10.30
2022-10-15T09:42:43.706Z,11.40
2022-10-15T09:43:49.280Z,12.30
2022-10-15T09:44:51.663Z,10.70
2022-10-15T09:45:55.563Z,10.50
2022-10-15T09:46:59.637Z,8.40
2022-10-15T09:48:03.259Z,9.70
2022-10-15T09:49:11.797Z,10.00
2022-10-15T09:50:14.380Z,11.50
2022-10-15T09:51:41.102Z,11.40
2022-10-15T09:53:19.517Z,10.50
2022-10-15T09:54:27.631Z,7.80
2022-10-15T09:55:36.535Z,12.30
2022-10-15T09:57:58.379Z,10.30
2022-10-15T09:59:03.659Z,7.00
2022-10-15T10:00:08.688Z,10.00
2022-10-15T10:01:19.812Z,11.50
2022-10-15T10:02:24.376Z,8.10
2022-10-15T10:03:30.090Z,10.40
2022-10-15T10:04:33.262Z,9.40
2022-10-15T10:05:36.182Z,10.30
2022-10-15T10:08:21.920Z,10.60
2022-10-15T10:09:29.434Z,10.30
2022-10-15T10:10:34.836Z,11.00
2022-10-15T10:13:10.662Z,7.40
2022-10-15T10:14:17.053Z,8.90
2022-10-15T10:16:43.836Z,8.80
2022-10-15T10:17:56.853Z,9.70
2022-10-15T10:20:23.422Z,7.90
2022-10-15T10:21:35.077Z,8.40
2022-10-15T10:22:55.328Z,3.50
2022-10-15T10:24:17.892Z,8.80
2022-10-15T10:25:29.610Z,10.60
2022-10-15T10:26:34.750Z,9.00
2022-10-15T10:27:36.906Z,9.10
2022-10-15T10:29:00.229Z,10.30
2022-10-15T10:29:59.957Z,10.50
2022-10-15T10:31:04.711Z,11.70
2022-10-15T10:33:41.050Z,14.20
2022-10-15T10:34:43.094Z,7.60
2022-10-15T10:37:02.358Z,11.60
2022-10-15T10:38:04.964Z,11.70
2022-10-15T10:39:13.955Z,12.60
2022-10-15T10:40:28.539Z,10.50
2022-10-15T10:41:50.122Z,14.50
2022-10-15T10:43:12.841Z,14.10
2022-10-15T10:44:35.886Z,13.80
2022-10-15T10:45:38.729Z,12.70
2022-10-15T10:46:40.991Z,13.82
2022-10-15T10:47:43.540Z,12.70
2022-10-15T10:48:50.019Z,13.30
2022-10-15T10:49:58.032Z,12.40
2022-10-15T10:51:24.902Z,14.70
2022-10-15T10:54:00.498Z,14.40
2022-10-15T10:55:09.759Z,14.90
2022-10-15T10:56:13.164Z,14.30
2022-10-15T10:57:16.909Z,14.20
2022-10-15T10:58:26.256Z,13.60
2022-10-15T11:00:44.862Z,13.50
2022-10-15T11:01:47.837Z,14.30
2022-10-15T11:02:52.197Z,11.90
2022-10-15T11:03:54.468Z,13.90
2022-10-15T11:04:59.364Z,14.90
2022-10-15T11:06:18.338Z,13.50
2022-10-15T11:09:05.963Z,12.40
2022-10-15T11:10:19.522Z,12.70
2022-10-15T11:11:25.529Z,12.30
2022-10-15T11:12:34.463Z,12.40
2022-10-15T11:13:59.887Z,8.80
2022-10-15T11:15:17.986Z,12.50
2022-10-15T11:16:29.561Z,7.00
2022-10-15T11:17:53.532Z,11.20
2022-10-15T11:19:50.399Z,12.90
2022-10-15T11:20:44.237Z,10.00
2022-10-15T11:21:56.877Z,11.50
2022-10-15T11:24:42.874Z,11.10
2022-10-15T11:27:21.596Z,10.70
2022-10-15T11:28:37.568Z,11.10
2022-10-15T11:30:04.187Z,11.00
2022-10-15T11:31:34.326Z,10.20
2022-10-15T11:33:08.691Z,9.50
2022-10-15T11:34:01.712Z,9.90
2022-10-15T11:35:51.465Z,9.20
2022-10-15T11:36:45.705Z,8.80
2022-10-15T11:38:26.741Z,7.80
2022-10-15T11:39:39.314Z,9.10
2022-10-15T11:40:48.027Z,8.30
2022-10-15T11:42:14.497Z,9.10
2022-10-15T11:43:40.569Z,9.80
2022-10-15T11:45:01.826Z,8.40
2022-10-15T11:46:11.966Z,8.90
2022-10-15T11:47:21.090Z,8.30
2022-10-15T11:48:45.145Z,8.10
2022-10-15T11:50:06.096Z,7.80
2022-10-15T11:51:25.840Z,7.50
2022-10-15T11:52:35.004Z,8.30
2022-10-15T11:53:46.667Z,7.40
2022-10-15T11:55:11.425Z,6.50
2022-10-15T11:56:23.774Z,6.10
2022-10-15T11:57:27.133Z,7.50
2022-10-15T12:00:26.609Z,5.90
2022-10-15T12:01:39.216Z,5.90
2022-10-15T12:02:52.410Z,5.90
2022-10-15T12:03:57.291Z,5.50
2022-10-15T12:05:01.735Z,6.40
2022-10-15T12:06:06.481Z,6.80
2022-10-15T12:08:35.200Z,4.60
2022-10-15T12:09:40.600Z,6.10
2022-10-15T12:10:49.218Z,6.10
2022-10-15T12:12:04.598Z,7.00
2022-10-15T12:14:41.418Z,8.20
2022-10-15T12:15:53.100Z,11.30
2022-10-15T12:17:17.999Z,19.40
2022-10-15T12:18:26.791Z,52.10
2022-10-15T12:19:38.757Z,79.60
2022-10-15T12:20:45.597Z,97.60
2022-10-15T12:21:57.544Z,123.60
2022-10-15T12:23:03.335Z,144.50
2022-10-15T12:24:09.504Z,147.70
2022-10-15T12:26:51.454Z,191.60
2022-10-15T12:28:01.435Z,166.20
2022-10-15T12:29:05.969Z,184.30
2022-10-15T12:30:14.475Z,168.50
2022-10-15T12:31:16.722Z,162.40
2022-10-15T12:32:29.256Z,172.00
2022-10-15T12:33:34.881Z,158.10
2022-10-15T12:34:43.918Z,145.10
2022-10-15T12:35:49.059Z,149.70
2022-10-15T12:37:05.474Z,151.60
2022-10-15T12:38:31.304Z,150.30
2022-10-15T12:39:51.341Z,141.50
2022-10-15T12:40:37.718Z,145.20
2022-10-15T12:41:42.861Z,144.44
2022-10-15T12:42:45.541Z,150.00
2022-10-15T12:43:52.404Z,144.30
2022-10-15T12:44:54.977Z,143.60
2022-10-15T12:45:59.892Z,148.70
2022-10-15T12:47:03.781Z,135.60
2022-10-15T12:48:09.611Z,145.10
2022-10-15T12:49:27.188Z,145.70
2022-10-15T12:50:31.153Z,150.40
2022-10-15T12:51:34.640Z,147.60
2022-10-15T12:52:53.040Z,151.00
2022-10-15T12:53:55.254Z,152.60
2022-10-15T12:56:22.817Z,156.80
2022-10-15T12:57:39.053Z,149.40
2022-10-15T12:58:51.006Z,157.10
2022-10-15T12:59:55.172Z,153.30
2022-10-15T13:00:57.960Z,161.70
2022-10-15T13:02:01.231Z,158.10
2022-10-15T13:04:37.606Z,157.30
2022-10-15T13:05:41.192Z,161.40
2022-10-15T13:06:43.262Z,156.44
2022-10-15T13:07:46.297Z,154.18
2022-10-15T13:08:54.956Z,156.50
2022-10-15T13:10:00.524Z,164.00
2022-10-15T13:11:02.909Z,167.50
2022-10-15T13:12:05.356Z,155.00
2022-10-15T13:13:13.913Z,156.33
2022-10-15T13:14:42.984Z,159.00
2022-10-15T13:16:01.457Z,153.20
2022-10-15T13:17:17.899Z,138.60
2022-10-15T13:18:20.002Z,151.20
2022-10-15T13:19:42.352Z,145.90
2022-10-15T13:20:46.543Z,146.10
2022-10-15T13:21:54.033Z,142.90
2022-10-15T13:24:27.144Z,135.70
2022-10-15T13:25:31.603Z,121.10
2022-10-15T13:26:35.768Z,120.10
2022-10-15T13:27:38.415Z,102.20
2022-10-15T13:28:42.351Z,91.91
2022-10-15T13:29:59.094Z,93.90
2022-10-15T13:31:06.471Z,94.90
2022-10-15T13:32:12.540Z,91.10
2022-10-15T13:33:14.735Z,89.70
2022-10-15T13:35:37.991Z,80.00
2022-10-15T13:36:41.606Z,83.00
2022-10-15T13:37:45.967Z,77.45
2022-10-15T13:40:24.315Z,78.10
2022-10-15T13:42:45.493Z,77.30
2022-10-15T13:43:53.071Z,70.20
2022-10-15T13:44:58.127Z,71.90
2022-10-15T13:46:00.585Z,73.20
2022-10-15T13:47:03.789Z,71.00
2022-10-15T13:48:10.198Z,68.36
2022-10-15T13:49:13.209Z,67.50
2022-10-15T13:50:20.802Z,65.27
2022-10-15T13:51:23.762Z,63.50
2022-10-15T13:52:30.141Z,61.70
2022-10-15T13:54:47.963Z,61.60
2022-10-15T13:55:52.126Z,62.67
2022-10-15T13:58:22.379Z,60.10
2022-10-15T13:59:25.994Z,53.10
2022-10-15T14:00:34.233Z,53.50
2022-10-15T14:01:36.918Z,51.60
2022-10-15T14:02:41.049Z,49.40
2022-10-15T14:05:14.494Z,47.00
2022-10-15T14:06:33.876Z,42.40
2022-10-15T14:07:36.203Z,43.80
2022-10-15T14:08:38.711Z,41.70
2022-10-15T14:09:41.098Z,28.50
2022-10-15T14:10:43.790Z,30.60
2022-10-15T14:11:45.938Z,33.00
2022-10-15T14:12:49.430Z,34.70
2022-10-15T14:13:55.088Z,30.00
2022-10-15T14:14:57.257Z,30.50
2022-10-15T14:16:15.440Z,29.90
2022-10-15T14:17:23.257Z,29.00
2022-10-15T14:18:29.779Z,28.10
2022-10-15T14:19:32.051Z,26.90
2022-10-15T14:20:34.575Z,24.30
2022-10-15T14:21:37.086Z,24.80
2022-10-15T14:22:40.461Z,25.00
2022-10-15T14:23:45.616Z,19.60
2022-10-15T14:24:49.312Z,22.10
2022-10-15T14:26:01.084Z,25.70
2022-10-15T14:27:07.981Z,21.50
2022-10-15T14:28:18.805Z,23.70
2022-10-15T14:29:25.897Z,20.50
2022-10-15T14:30:30.984Z,16.80
2022-10-15T14:31:38.558Z,21.20
2022-10-15T14:32:48.950Z,16.70
2022-10-15T14:33:51.614Z,18.10
2022-10-15T14:36:19.706Z,16.00
2022-10-15T14:37:37.911Z,17.30
2022-10-15T14:38:40.558Z,17.60
2022-10-15T14:39:42.586Z,17.30
2022-10-15T14:42:27.905Z,17.20
2022-10-15T14:43:33.816Z,16.80
2022-10-15T14:44:43.449Z,15.80
2022-10-15T14:45:57.627Z,15.20
2022-10-15T14:47:01.209Z,16.50
2022-10-15T14:49:27.262Z,16.00
2022-10-15T14:50:32.970Z,15.20
2022-10-15T14:51:49.314Z,17.30
2022-10-15T14:52:55.371Z,18.40
2022-10-15T14:53:58.461Z,22.90
2022-10-15T14:55:24.186Z,23.30
2022-10-15T14:56:29.960Z,25.60
2022-10-15T14:57:36.918Z,25.00
2022-10-15T14:58:40.719Z,24.50
2022-10-15T14:59:43.800Z,25.50
2022-10-15T15:00:47.997Z,23.50
2022-10-15T15:03:19.385Z,27.70
2022-10-15T15:04:40.424Z,28.20
2022-10-15T15:07:00.461Z,26.60
2022-10-15T15:08:06.689Z,29.80
2022-10-15T15:09:11.711Z,32.20
2022-10-15T15:10:15.365Z,31.00
2022-10-15T15:11:19.322Z,32.20
2022-10-15T15:12:26.903Z,32.60
2022-10-15T15:13:30.155Z,37.20
2022-10-15T15:14:32.589Z,36.00
2022-10-15T15:15:34.596Z,33.50
2022-10-15T15:16:36.734Z,36.80
2022-10-15T15:17:38.799Z,37.80
2022-10-15T15:18:41.987Z,37.70
2022-10-15T15:19:45.312Z,35.30
2022-10-15T15:20:48.959Z,36.70
2022-10-15T15:21:51.253Z,39.00
2022-10-15T15:22:54.705Z,42.40
2022-10-15T15:23:56.738Z,39.60
2022-10-15T15:25:00.774Z,36.20
2022-10-15T15:26:03.515Z,31.30
2022-10-15T15:27:05.566Z,44.80
2022-10-15T15:30:31.121Z,77.70
2022-10-15T15:31:34.267Z,71.00
2022-10-15T15:32:37.060Z,87.50
2022-10-15T15:33:39.191Z,80.10
2022-10-15T15:34:41.313Z,90.40
2022-10-15T15:37:13.843Z,74.60